Time;durP1;ratioP1;P1;durP2;ratioP2;P2;SDS_P1;SDS_P2;PMS_P1;PMS_P2;Temp;Humidity;BMP_temperature;BMP_pressure;BME280_temperature;BME280_humidity;BME280_pressure;Samples;Min_cycle;Max_cycle;Signal;HPM_P1;HPM_P2
2021/04/14 03:34:53;;;;;;;;;;;5.30;52.40;;;;;;4693976;30;20126;-81
2021/04/14 03:37:20;;;;;;;;;;;5.30;52.30;;;;;;4820661;29;19927;-81
2021/04/14 03:39:47;;;;;;;;;;;5.30;52.40;;;;;;4918076;29;19927;-81
2021/04/14 03:42:14;;;;;;;;;;;5.30;52.40;;;;;;4914064;29;19927;-81
2021/04/14 03:44:41;;;;;;;;;;;5.30;52.30;;;;;;4916195;29;19927;-81
2021/04/14 03:47:07;;;;;;;;;;;5.30;52.30;;;;;;4917088;29;19931;-81
2021/04/14 03:49:33;;;;;;;;;;;5.30;52.30;;;;;;4917030;29;19927;-80
2021/04/14 03:52:01;;;;;;;;;;;5.30;52.30;;;;;;4903232;29;19932;-81
2021/04/14 03:54:27;;;;;;;;;;;5.30;52.40;;;;;;4913810;29;19927;-81
2021/04/14 03:56:54;;;;;;;;;;;5.20;52.40;;;;;;4916847;29;19927;-81
2021/04/14 03:59:21;;;;;;;;;;;5.20;52.40;;;;;;4903429;29;19931;-81
2021/04/14 04:02:29;;;;;;;;;;;5.20;52.40;;;;;;4909422;29;19927;-87
2021/04/14 04:04:58;;;;;;;;;;;5.20;52.50;;;;;;4915777;29;19927;-83
2021/04/14 04:23:27;;;;;;;;;;;5.10;52.60;;;;;;4874515;29;19931;-83
2021/04/14 04:35:23;;;;;;;;;;;4.90;52.90;;;;;;4854154;29;19927;-84
2021/04/14 04:38:24;;;;;;;;;;;4.90;53.10;;;;;;4900797;29;20286;-84
2021/04/14 04:40:51;;;;;;;;;;;4.90;53.10;;;;;;4901918;29;19938;-81
2021/04/14 04:43:20;;;;;;;;;;;4.90;53.30;;;;;;4897813;29;19938;-83
2021/04/14 04:45:47;;;;;;;;;;;5.00;53.30;;;;;;4897884;29;19927;-82
2021/04/14 04:48:17;;;;;;;;;;;5.00;53.20;;;;;;4904252;29;19974;-83
2021/04/14 04:50:45;;;;;;;;;;;5.00;53.10;;;;;;4900278;29;19927;-84
2021/04/14 04:53:13;;;;;;;;;;;4.90;53.10;;;;;;4904569;29;19934;-82
2021/04/14 04:58:47;;;;;;;;;;;5.00;53.30;;;;;;4897408;29;19946;-86
2021/04/14 05:01:15;;;;;;;;;;;4.90;53.30;;;;;;4904778;29;20384;-82
2021/04/14 05:03:52;;;;;;;;;;;5.00;53.50;;;;;;4913267;29;20491;-86
2021/04/14 05:09:24;;;;;;;;;;;5.00;53.40;;;;;;4898562;29;19945;-85
2021/04/14 05:18:09;;;;;;;;;;;5.00;53.30;;;;;;4812437;29;20027;-82
2021/04/14 05:33:03;;;;;;;;;;;5.20;53.50;;;;;;4902923;29;20451;-88
2021/04/14 05:39:01;;;;;;;;;;;5.30;53.50;;;;;;4852151;29;20005;-83
2021/04/14 05:44:30;;;;;;;;;;;5.40;53.50;;;;;;4852564;29;20093;-82
2021/04/14 05:47:26;;;;;;;;;;;5.50;53.40;;;;;;4896464;29;20432;-83
2021/04/14 05:49:53;;;;;;;;;;;5.60;53.40;;;;;;4907109;29;19927;-81
2021/04/14 05:52:40;;;;;;;;;;;5.70;53.20;;;;;;4900692;29;20324;-83
2021/04/14 05:55:09;;;;;;;;;;;5.70;53.10;;;;;;4879591;29;19932;-81
2021/04/14 05:57:35;;;;;;;;;;;5.70;52.90;;;;;;4901156;29;19928;-83
2021/04/14 06:00:02;;;;;;;;;;;5.80;52.90;;;;;;4904653;29;19938;-80
2021/04/14 06:02:28;;;;;;;;;;;5.80;52.80;;;;;;4910106;29;19931;-81
2021/04/14 06:04:54;;;;;;;;;;;5.80;52.70;;;;;;4911269;29;19927;-82
2021/04/14 06:07:21;;;;;;;;;;;5.90;52.60;;;;;;4905118;29;19928;-80
2021/04/14 06:09:47;;;;;;;;;;;5.90;52.50;;;;;;4904695;29;20447;-81
2021/04/14 06:12:14;;;;;;;;;;;5.90;52.40;;;;;;4917550;29;20053;-80
2021/04/14 06:14:41;;;;;;;;;;;6.00;52.40;;;;;;4900933;29;19928;-82
2021/04/14 06:17:09;;;;;;;;;;;6.10;52.40;;;;;;4904273;29;19978;-83
2021/04/14 06:19:41;;;;;;;;;;;6.20;52.30;;;;;;4919225;29;19937;-82
2021/04/14 06:22:12;;;;;;;;;;;6.30;52.20;;;;;;4904593;29;20304;-84
2021/04/14 06:25:02;;;;;;;;;;;6.40;52.10;;;;;;4914530;29;19927;-84
2021/04/14 06:27:58;;;;;;;;;;;6.50;51.90;;;;;;4881309;29;20401;-82
2021/04/14 06:30:27;;;;;;;;;;;6.70;51.80;;;;;;4906336;29;20377;-81
2021/04/14 06:32:54;;;;;;;;;;;6.80;51.50;;;;;;4918982;29;19972;-81
2021/04/14 06:35:21;;;;;;;;;;;7.00;51.30;;;;;;4902239;29;19935;-81
2021/04/14 06:37:47;;;;;;;;;;;7.20;51.10;;;;;;4900619;29;20258;-81
2021/04/14 06:40:41;;;;;;;;;;;7.40;50.90;;;;;;4902508;29;19934;-82
2021/04/14 06:43:18;;;;;;;;;;;7.50;50.50;;;;;;4917513;29;19928;-78
2021/04/14 06:45:45;;;;;;;;;;;7.70;50.30;;;;;;4904180;29;19927;-83
2021/04/14 06:48:18;;;;;;;;;;;7.80;50.00;;;;;;4906780;29;19937;-82
2021/04/14 06:50:48;;;;;;;;;;;8.00;49.70;;;;;;4899882;29;19927;-79
2021/04/14 06:53:18;;;;;;;;;;;8.10;49.70;;;;;;4900134;29;19927;-80
2021/04/14 06:55:47;;;;;;;;;;;8.20;49.60;;;;;;4907712;29;19934;-78
2021/04/14 06:58:31;;;;;;;;;;;8.20;49.20;;;;;;4910115;29;19927;-82
2021/04/14 07:01:01;;;;;;;;;;;8.30;49.20;;;;;;4898669;29;19931;-79
2021/04/14 07:03:29;;;;;;;;;;;8.30;49.00;;;;;;4900847;29;19970;-80
2021/04/14 07:06:01;;;;;;;;;;;8.30;48.90;;;;;;4909575;29;19934;-80
2021/04/14 07:08:28;;;;;;;;;;;8.30;48.80;;;;;;4914352;29;19927;-79
2021/04/14 07:11:01;;;;;;;;;;;8.30;48.70;;;;;;4912450;29;19931;-81
2021/04/14 07:13:28;;;;;;;;;;;8.40;48.80;;;;;;4912843;29;19928;-82
2021/04/14 07:15:57;;;;;;;;;;;8.50;48.70;;;;;;4899567;29;19935;-80
2021/04/14 07:18:30;;;;;;;;;;;8.50;48.60;;;;;;4907805;29;19927;-82
2021/04/14 07:21:00;;;;;;;;;;;8.50;48.40;;;;;;4906174;29;19931;-81
2021/04/14 07:23:31;;;;;;;;;;;8.60;48.50;;;;;;4902658;29;19927;-81
2021/04/14 07:26:03;;;;;;;;;;;8.60;48.50;;;;;;4901323;29;20031;-79
2021/04/14 07:28:39;;;;;;;;;;;8.60;48.30;;;;;;4911431;29;19927;-80
2021/04/14 07:31:09;;;;;;;;;;;8.70;48.40;;;;;;4905745;29;19931;-80
2021/04/14 07:33:42;;;;;;;;;;;8.70;48.20;;;;;;4908975;29;19927;-81
2021/04/14 07:51:23;;;;;;;;;;;8.90;47.90;;;;;;4841341;29;19984;-81
2021/04/14 07:54:13;;;;;;;;;;;9.20;47.70;;;;;;4840409;29;19928;-83
2021/04/14 08:09:59;;;;;;;;;;;10.80;43.80;;;;;;4833633;29;19943;-83
2021/04/14 08:12:50;;;;;;;;;;;11.00;43.50;;;;;;4843272;29;19927;-84
2021/04/14 08:18:48;;;;;;;;;;;11.10;42.80;;;;;;4914944;29;19955;-83
2021/04/14 08:24:26;;;;;;;;;;;11.40;42.20;;;;;;4899132;29;19923;-81
2021/04/14 08:27:33;;;;;;;;;;;11.60;41.90;;;;;;4898106;29;19928;-85
2021/04/14 08:30:20;;;;;;;;;;;11.70;41.50;;;;;;4860560;29;20022;-82
2021/04/14 08:32:57;;;;;;;;;;;11.70;41.10;;;;;;4887274;29;20012;-81
2021/04/14 08:35:27;;;;;;;;;;;11.80;41.00;;;;;;4898191;29;19934;-80
2021/04/14 08:37:58;;;;;;;;;;;11.90;40.80;;;;;;4910258;29;20227;-81
2021/04/14 08:40:29;;;;;;;;;;;11.80;40.30;;;;;;4908108;29;19927;-82
2021/04/14 08:42:57;;;;;;;;;;;11.80;40.30;;;;;;4908044;29;20759;-81
2021/04/14 08:48:33;;;;;;;;;;;11.90;40.80;;;;;;4898631;29;19938;-83
2021/04/14 08:51:07;;;;;;;;;;;11.90;40.30;;;;;;4878502;29;19955;-86
2021/04/14 08:53:48;;;;;;;;;;;12.00;40.40;;;;;;4896086;29;20026;-83
2021/04/14 08:56:15;;;;;;;;;;;12.00;40.30;;;;;;4894777;29;19949;-82
2021/04/14 08:58:41;;;;;;;;;;;12.00;39.90;;;;;;4897736;29;19934;-82
2021/04/14 09:01:22;;;;;;;;;;;12.00;40.10;;;;;;4897688;29;20421;-85
2021/04/14 09:04:06;;;;;;;;;;;12.00;40.30;;;;;;4898150;29;19928;-83
2021/04/14 09:06:37;;;;;;;;;;;12.00;39.90;;;;;;4898735;29;19928;-83
2021/04/14 09:09:27;;;;;;;;;;;12.00;39.50;;;;;;4898412;29;19962;-82
2021/04/14 09:12:03;;;;;;;;;;;11.90;39.80;;;;;;4898461;29;19939;-82
2021/04/14 09:14:39;;;;;;;;;;;11.90;39.80;;;;;;4897745;29;20022;-82
2021/04/14 09:17:20;;;;;;;;;;;11.90;39.80;;;;;;4897458;29;19927;-83
2021/04/14 09:19:55;;;;;;;;;;;12.00;39.60;;;;;;4898008;29;19928;-82
2021/04/14 09:22:38;;;;;;;;;;;12.10;39.50;;;;;;4897962;29;20722;-82
2021/04/14 09:25:19;;;;;;;;;;;12.10;39.30;;;;;;4897896;29;19927;-82
2021/04/14 09:27:48;;;;;;;;;;;12.10;39.10;;;;;;4897694;29;19931;-83
2021/04/14 09:30:31;;;;;;;;;;;12.10;39.30;;;;;;4896297;29;19934;-83
2021/04/14 09:33:23;;;;;;;;;;;11.90;39.10;;;;;;4896772;29;19927;-83
2021/04/14 09:36:01;;;;;;;;;;;11.90;39.00;;;;;;4892739;29;19927;-83
2021/04/14 09:38:33;;;;;;;;;;;11.90;39.40;;;;;;4896734;29;19927;-83
2021/04/14 09:41:36;;;;;;;;;;;12.00;39.20;;;;;;4897328;29;19928;-84
2021/04/14 09:44:35;;;;;;;;;;;12.10;38.90;;;;;;4897169;29;19971;-84
2021/04/14 09:50:45;;;;;;;;;;;12.20;38.10;;;;;;4893313;29;19942;-84
2021/04/14 09:53:49;;;;;;;;;;;12.30;38.10;;;;;;4894351;29;20373;-84
2021/04/14 09:56:47;;;;;;;;;;;12.40;37.70;;;;;;4885240;29;19933;-83
2021/04/14 10:02:19;;;;;;;;;;;12.80;35.80;;;;;;4892667;29;19928;-83
2021/04/14 10:04:56;;;;;;;;;;;13.00;34.70;;;;;;4899971;29;19958;-83
2021/04/14 10:07:32;;;;;;;;;;;13.10;33.80;;;;;;4917304;29;19931;-83
2021/04/14 10:10:12;;;;;;;;;;;13.00;32.00;;;;;;4915824;29;20380;-83
2021/04/14 10:12:57;;;;;;;;;;;13.00;32.30;;;;;;4900893;29;19935;-84
2021/04/14 10:15:38;;;;;;;;;;;13.10;32.40;;;;;;4900822;29;19954;-84
2021/04/14 10:18:10;;;;;;;;;;;13.30;32.90;;;;;;4900626;29;19934;-83
2021/04/14 10:20:52;;;;;;;;;;;13.40;33.00;;;;;;4900754;29;19934;-84
2021/04/14 10:23:23;;;;;;;;;;;13.30;32.20;;;;;;4899138;29;20408;-83
2021/04/14 10:26:06;;;;;;;;;;;13.30;32.30;;;;;;4900756;29;19955;-85
2021/04/14 10:28:46;;;;;;;;;;;13.30;32.30;;;;;;4900719;29;19934;-84
2021/04/14 10:31:27;;;;;;;;;;;13.30;32.00;;;;;;4900641;29;19991;-84
2021/04/14 10:33:56;;;;;;;;;;;13.20;32.50;;;;;;4900032;29;20416;-84
2021/04/14 10:36:36;;;;;;;;;;;13.30;32.60;;;;;;4900090;29;19960;-84
2021/04/14 10:39:20;;;;;;;;;;;13.30;32.50;;;;;;4900636;29;19939;-84
2021/04/14 10:41:54;;;;;;;;;;;13.40;32.30;;;;;;4899699;29;20415;-84
2021/04/14 10:44:27;;;;;;;;;;;13.40;33.50;;;;;;4899701;29;19989;-84
2021/04/14 10:47:01;;;;;;;;;;;13.20;35.20;;;;;;4899767;29;19967;-84
2021/04/14 10:49:37;;;;;;;;;;;13.00;35.80;;;;;;4898310;29;20365;-84
2021/04/14 10:52:14;;;;;;;;;;;12.80;36.30;;;;;;4899871;29;20303;-84
2021/04/14 10:54:49;;;;;;;;;;;12.50;36.60;;;;;;4899773;29;19935;-84
2021/04/14 10:57:28;;;;;;;;;;;12.20;37.10;;;;;;4898859;29;19942;-84
2021/04/14 11:00:02;;;;;;;;;;;12.10;37.90;;;;;;4899608;29;19935;-84
2021/04/14 11:02:29;;;;;;;;;;;11.90;38.50;;;;;;4899241;29;19987;-84
2021/04/14 11:04:55;;;;;;;;;;;11.90;38.90;;;;;;4899552;29;20420;-83
2021/04/14 11:07:23;;;;;;;;;;;11.80;38.40;;;;;;4915867;29;19927;-83
2021/04/14 11:09:56;;;;;;;;;;;11.80;38.50;;;;;;4915833;29;19986;-84
2021/04/14 11:12:26;;;;;;;;;;;11.70;38.60;;;;;;4899227;29;19932;-84
2021/04/14 11:14:56;;;;;;;;;;;11.70;39.20;;;;;;4899174;29;19928;-84
2021/04/14 11:20:10;;;;;;;;;;;11.80;39.50;;;;;;4898074;29;19927;-83
2021/04/14 11:22:45;;;;;;;;;;;11.90;39.30;;;;;;4899548;29;19975;-83
2021/04/14 11:25:26;;;;;;;;;;;12.00;39.00;;;;;;4899565;29;19932;-84
2021/04/14 11:28:13;;;;;;;;;;;12.00;38.30;;;;;;4898928;29;19938;-84
2021/04/14 11:30:54;;;;;;;;;;;12.00;36.70;;;;;;4898898;29;20285;-84
2021/04/14 11:33:34;;;;;;;;;;;12.00;35.30;;;;;;4900546;29;19939;-84
2021/04/14 11:39:20;;;;;;;;;;;12.40;34.60;;;;;;4912278;29;19935;-84
2021/04/14 11:41:58;;;;;;;;;;;12.90;34.30;;;;;;4898620;29;19927;-83
2021/04/14 11:44:43;;;;;;;;;;;13.10;33.60;;;;;;4905065;29;19927;-82
2021/04/14 11:47:31;;;;;;;;;;;13.50;33.30;;;;;;4900263;29;19927;-83
2021/04/14 11:50:15;;;;;;;;;;;13.80;33.00;;;;;;4903111;29;19982;-84
2021/04/14 11:52:48;;;;;;;;;;;13.80;32.50;;;;;;4902675;29;19935;-83
2021/04/14 11:55:27;;;;;;;;;;;13.90;32.30;;;;;;4902445;29;19974;-82
2021/04/14 11:57:55;;;;;;;;;;;14.00;32.60;;;;;;4895694;29;19928;-83
2021/04/14 12:00:26;;;;;;;;;;;14.00;32.50;;;;;;4912809;29;19928;-82
2021/04/14 12:03:25;;;;;;;;;;;14.10;32.80;;;;;;4903185;29;19931;-83
2021/04/14 12:06:30;;;;;;;;;;;14.00;33.00;;;;;;4894879;29;20006;-83
2021/04/14 12:09:17;;;;;;;;;;;14.00;33.20;;;;;;4896923;29;19927;-84
2021/04/14 12:11:59;;;;;;;;;;;13.90;32.70;;;;;;4897891;29;20017;-84
2021/04/14 12:14:53;;;;;;;;;;;13.90;32.90;;;;;;4897710;29;19951;-84
2021/04/14 12:17:24;;;;;;;;;;;14.00;32.70;;;;;;4897937;29;19927;-83
2021/04/14 12:19:51;;;;;;;;;;;14.20;32.90;;;;;;4914827;29;19931;-83
2021/04/14 12:22:18;;;;;;;;;;;14.30;32.50;;;;;;4911836;29;19927;-81
2021/04/14 12:24:46;;;;;;;;;;;14.50;32.60;;;;;;4899737;29;20014;-82
2021/04/14 12:27:13;;;;;;;;;;;14.50;32.40;;;;;;4907311;29;19928;-82
2021/04/14 12:29:40;;;;;;;;;;;14.50;33.20;;;;;;4898479;29;19983;-82
2021/04/14 13:03:03;;;;;;;;;;;13.90;38.20;;;;;;4868890;29;20289;-82
2021/04/14 13:05:34;;;;;;;;;;;14.10;37.90;;;;;;4886195;29;19927;-83
2021/04/14 13:08:11;;;;;;;;;;;14.10;37.60;;;;;;4897011;29;19927;-83
2021/04/14 13:10:51;;;;;;;;;;;14.10;37.40;;;;;;4897025;29;19952;-82
2021/04/14 13:19:44;;;;;;;;;;;14.30;37.20;;;;;;4861388;29;20093;-84
2021/04/14 13:22:39;;;;;;;;;;;14.10;37.40;;;;;;4900567;29;19938;-84
2021/04/14 13:28:09;;;;;;;;;;;13.90;38.20;;;;;;4894464;29;19981;-84
2021/04/14 13:31:14;;;;;;;;;;;13.70;38.90;;;;;;4900243;29;19931;-85
2021/04/14 13:52:18;;;;;;;;;;;13.70;34.60;;;;;;4768734;30;19929;-82
2021/04/14 14:04:08;;;;;;;;;;;13.70;36.40;;;;;;4769054;30;19942;-82
2021/04/14 14:19:44;;;;;;;;;;;13.50;37.80;;;;;;4736701;30;19963;-85
2021/04/14 14:22:12;;;;;;;;;;;13.60;38.50;;;;;;4754062;29;20015;-79
2021/04/14 14:24:41;;;;;;;;;;;13.50;38.60;;;;;;4814514;29;19939;-81
2021/04/14 14:27:08;;;;;;;;;;;13.50;38.60;;;;;;4895013;29;20377;-81
2021/04/14 14:29:41;;;;;;;;;;;13.40;38.50;;;;;;4900131;29;19931;-81
2021/04/14 14:32:08;;;;;;;;;;;13.40;39.00;;;;;;4899184;29;19934;-81
2021/04/14 14:34:38;;;;;;;;;;;13.30;38.90;;;;;;4899971;29;20284;-81
2021/04/14 14:37:10;;;;;;;;;;;13.20;39.20;;;;;;4900170;29;20381;-80
2021/04/14 14:39:39;;;;;;;;;;;13.10;39.80;;;;;;4900070;29;20612;-80
2021/04/14 14:42:08;;;;;;;;;;;12.90;41.00;;;;;;4899898;29;19931;-80
2021/04/14 14:44:37;;;;;;;;;;;12.70;41.70;;;;;;4899995;29;20372;-81
2021/04/14 14:47:05;;;;;;;;;;;12.50;42.30;;;;;;4898329;29;19931;-81
2021/04/14 14:49:33;;;;;;;;;;;12.30;42.70;;;;;;4899893;29;19928;-82
2021/04/14 14:52:00;;;;;;;;;;;12.30;43.10;;;;;;4900219;29;19927;-81
2021/04/14 14:54:29;;;;;;;;;;;12.30;43.10;;;;;;4899998;29;19935;-82
2021/04/14 14:56:59;;;;;;;;;;;12.30;43.00;;;;;;4899722;29;20387;-81
2021/04/14 14:59:29;;;;;;;;;;;12.30;42.40;;;;;;4899810;29;19950;-81
2021/04/14 15:01:57;;;;;;;;;;;12.30;42.80;;;;;;4900195;29;20292;-81
2021/04/14 15:04:24;;;;;;;;;;;12.30;42.90;;;;;;4899560;29;19990;-81
2021/04/14 15:06:52;;;;;;;;;;;12.30;42.90;;;;;;4911572;29;19982;-81
2021/04/14 15:09:18;;;;;;;;;;;12.30;43.10;;;;;;4918800;29;19991;-81
2021/04/14 15:11:45;;;;;;;;;;;12.30;43.40;;;;;;4900827;29;20388;-81
2021/04/14 15:14:12;;;;;;;;;;;12.40;42.60;;;;;;4898015;29;19935;-81
2021/04/14 15:16:38;;;;;;;;;;;12.40;42.70;;;;;;4899680;29;19928;-81
2021/04/14 15:19:05;;;;;;;;;;;12.40;42.20;;;;;;4899635;29;19928;-81
2021/04/14 15:21:31;;;;;;;;;;;12.40;41.90;;;;;;4899584;29;19928;-81
2021/04/14 15:23:58;;;;;;;;;;;12.40;41.70;;;;;;4899547;29;19928;-81
2021/04/14 15:26:24;;;;;;;;;;;12.40;41.70;;;;;;4899374;29;20381;-81
2021/04/14 15:28:50;;;;;;;;;;;12.40;41.70;;;;;;4899215;29;19927;-80
2021/04/14 15:31:18;;;;;;;;;;;12.30;41.50;;;;;;4899278;29;19983;-81
2021/04/14 15:33:45;;;;;;;;;;;12.20;41.20;;;;;;4899435;29;19931;-81
2021/04/14 15:36:12;;;;;;;;;;;12.10;41.60;;;;;;4899316;29;19935;-80
2021/04/14 15:38:38;;;;;;;;;;;12.10;42.30;;;;;;4899303;29;19928;-81
2021/04/14 15:41:05;;;;;;;;;;;12.00;42.80;;;;;;4897687;29;20014;-81
2021/04/14 15:43:32;;;;;;;;;;;11.90;43.10;;;;;;4898970;29;19928;-80
2021/04/14 15:45:59;;;;;;;;;;;11.80;43.30;;;;;;4898936;29;19927;-80
2021/04/14 15:48:26;;;;;;;;;;;11.70;43.70;;;;;;4899226;29;19931;-80
2021/04/14 15:50:52;;;;;;;;;;;11.70;44.10;;;;;;4898825;29;19935;-81
2021/04/14 15:53:18;;;;;;;;;;;11.70;44.50;;;;;;4898914;29;19979;-81
2021/04/14 15:55:45;;;;;;;;;;;11.60;44.70;;;;;;4898904;29;19927;-81
2021/04/14 15:58:11;;;;;;;;;;;11.50;44.80;;;;;;4899141;29;19927;-80
2021/04/14 16:00:47;;;;;;;;;;;11.50;44.80;;;;;;4898526;29;20290;-81
2021/04/14 16:03:16;;;;;;;;;;;11.60;45.10;;;;;;4898706;29;19928;-80
2021/04/14 16:05:44;;;;;;;;;;;11.70;45.10;;;;;;4900708;29;20030;-81
2021/04/14 16:08:11;;;;;;;;;;;11.70;44.80;;;;;;4917215;29;19927;-81
2021/04/14 16:10:40;;;;;;;;;;;11.60;44.80;;;;;;4908326;29;19935;-81
2021/04/14 16:13:06;;;;;;;;;;;11.60;45.10;;;;;;4898120;29;19934;-83
2021/04/14 16:15:33;;;;;;;;;;;11.60;45.00;;;;;;4898365;29;19935;-80
2021/04/14 16:18:10;;;;;;;;;;;11.60;45.00;;;;;;4898124;29;19932;-80
2021/04/14 16:20:36;;;;;;;;;;;11.70;44.70;;;;;;4907063;29;19927;-81
2021/04/14 16:23:06;;;;;;;;;;;11.70;44.70;;;;;;4912445;29;19928;-83
2021/04/14 16:25:34;;;;;;;;;;;11.70;44.70;;;;;;4901141;29;19931;-82
2021/04/14 16:28:01;;;;;;;;;;;11.60;44.50;;;;;;4910556;29;20002;-80
2021/04/14 16:30:27;;;;;;;;;;;11.50;44.50;;;;;;4916167;29;19927;-82
2021/04/14 16:32:54;;;;;;;;;;;11.50;44.40;;;;;;4914239;29;19927;-82
2021/04/14 16:35:20;;;;;;;;;;;11.40;44.00;;;;;;4916308;29;19935;-81
2021/04/14 16:37:52;;;;;;;;;;;11.40;44.00;;;;;;4911023;29;19931;-84
2021/04/14 16:40:23;;;;;;;;;;;11.40;43.80;;;;;;4897627;29;19928;-82
2021/04/14 16:42:57;;;;;;;;;;;11.40;43.60;;;;;;4905114;29;19927;-83
2021/04/14 16:45:50;;;;;;;;;;;11.20;43.40;;;;;;4915819;29;19931;-83
2021/04/14 16:48:24;;;;;;;;;;;11.10;43.90;;;;;;4906523;29;19931;-85
2021/04/14 16:50:51;;;;;;;;;;;11.00;44.00;;;;;;4900235;29;19931;-80
2021/04/14 16:53:20;;;;;;;;;;;11.00;44.30;;;;;;4914202;29;19975;-83
2021/04/14 16:55:49;;;;;;;;;;;11.00;44.40;;;;;;4911955;29;19989;-81
2021/04/14 16:58:16;;;;;;;;;;;10.90;44.00;;;;;;4904511;29;20444;-81
2021/04/14 17:00:42;;;;;;;;;;;10.90;44.40;;;;;;4898259;29;20312;-81
2021/04/14 17:03:08;;;;;;;;;;;10.90;44.40;;;;;;4910350;29;19930;-82
2021/04/14 17:05:35;;;;;;;;;;;11.00;44.50;;;;;;4897782;29;20436;-82
2021/04/14 17:08:09;;;;;;;;;;;11.10;44.60;;;;;;4900795;29;20415;-82
2021/04/14 17:10:36;;;;;;;;;;;11.10;44.70;;;;;;4902632;29;19927;-80
2021/04/14 17:13:08;;;;;;;;;;;11.10;44.80;;;;;;4915962;29;19928;-80
2021/04/14 17:15:34;;;;;;;;;;;11.10;44.60;;;;;;4903188;29;20356;-78
2021/04/14 17:18:01;;;;;;;;;;;11.10;44.50;;;;;;4897215;29;19928;-81
2021/04/14 17:20:30;;;;;;;;;;;11.10;44.90;;;;;;4897741;29;19979;-80
2021/04/14 17:22:56;;;;;;;;;;;11.00;45.00;;;;;;4908751;29;19927;-82
2021/04/14 17:25:25;;;;;;;;;;;11.00;44.90;;;;;;4915317;29;20034;-82
2021/04/14 17:27:52;;;;;;;;;;;10.90;44.70;;;;;;4901398;29;19927;-79
2021/04/14 17:30:25;;;;;;;;;;;10.90;44.80;;;;;;4915236;29;19927;-80
2021/04/14 17:32:55;;;;;;;;;;;10.80;45.00;;;;;;4911620;29;19927;-80
2021/04/14 17:35:21;;;;;;;;;;;10.70;45.10;;;;;;4897277;29;20017;-82
2021/04/14 17:37:47;;;;;;;;;;;10.70;45.00;;;;;;4904993;29;19927;-79
2021/04/14 17:40:14;;;;;;;;;;;10.70;45.00;;;;;;4910756;29;19935;-80
2021/04/14 17:42:41;;;;;;;;;;;10.70;45.00;;;;;;4897839;29;19927;-80
2021/04/14 17:45:15;;;;;;;;;;;10.70;45.40;;;;;;4910018;29;19927;-80
2021/04/14 17:47:43;;;;;;;;;;;10.60;45.20;;;;;;4910518;29;19991;-79
2021/04/14 17:50:10;;;;;;;;;;;10.50;45.20;;;;;;4904714;29;19927;-79
2021/04/14 17:52:36;;;;;;;;;;;10.50;45.40;;;;;;4893798;29;19927;-79
2021/04/14 17:55:03;;;;;;;;;;;10.50;45.50;;;;;;4914541;29;20269;-83
2021/04/14 17:57:29;;;;;;;;;;;10.50;45.50;;;;;;4911414;29;19927;-79
2021/04/14 17:59:57;;;;;;;;;;;10.40;45.40;;;;;;4897254;29;19932;-79
2021/04/14 18:02:23;;;;;;;;;;;10.40;45.60;;;;;;4897367;29;20444;-78
2021/04/14 18:04:51;;;;;;;;;;;10.30;45.70;;;;;;4897140;29;19928;-79
2021/04/14 18:07:20;;;;;;;;;;;10.30;45.80;;;;;;4912455;29;19927;-78
2021/04/14 18:09:47;;;;;;;;;;;10.30;45.90;;;;;;4900582;29;20297;-80
2021/04/14 18:12:14;;;;;;;;;;;10.30;45.80;;;;;;4900769;29;20003;-79
2021/04/14 18:14:40;;;;;;;;;;;10.20;45.60;;;;;;4918937;29;19977;-79
2021/04/14 18:17:07;;;;;;;;;;;10.20;45.70;;;;;;4918629;29;19927;-79
2021/04/14 18:19:33;;;;;;;;;;;10.20;45.70;;;;;;4914471;29;19927;-80
2021/04/14 18:22:01;;;;;;;;;;;10.20;45.60;;;;;;4916673;29;19935;-79
2021/04/14 18:24:28;;;;;;;;;;;10.20;45.50;;;;;;4900552;29;20034;-79
2021/04/14 18:26:55;;;;;;;;;;;10.20;45.50;;;;;;4900641;29;19928;-80
2021/04/14 18:29:22;;;;;;;;;;;10.10;45.50;;;;;;4912207;29;19934;-80
2021/04/14 18:31:48;;;;;;;;;;;10.10;45.60;;;;;;4912613;29;20304;-79
2021/04/14 18:34:14;;;;;;;;;;;10.10;45.50;;;;;;4900072;29;20377;-81
2021/04/14 18:36:42;;;;;;;;;;;10.10;45.00;;;;;;4900372;29;20277;-79
2021/04/14 18:39:13;;;;;;;;;;;10.20;44.70;;;;;;4906972;29;19927;-79
2021/04/14 18:41:40;;;;;;;;;;;10.30;44.50;;;;;;4902882;29;19927;-78
2021/04/14 18:44:07;;;;;;;;;;;10.20;43.90;;;;;;4917136;29;19984;-78
2021/04/14 18:46:36;;;;;;;;;;;10.20;44.00;;;;;;4915653;29;20391;-83
2021/04/14 18:49:08;;;;;;;;;;;10.20;43.90;;;;;;4898705;29;19928;-82
2021/04/14 18:51:38;;;;;;;;;;;10.20;43.90;;;;;;4899374;29;19931;-83
2021/04/14 18:54:09;;;;;;;;;;;10.10;43.60;;;;;;4901327;29;19990;-79
2021/04/14 18:56:36;;;;;;;;;;;10.00;43.30;;;;;;4901595;29;19950;-82
2021/04/14 18:59:02;;;;;;;;;;;10.00;43.50;;;;;;4903622;29;19935;-80
2021/04/14 19:01:29;;;;;;;;;;;10.00;43.70;;;;;;4900876;29;19927;-80
2021/04/14 19:03:57;;;;;;;;;;;9.90;44.80;;;;;;4903355;29;19955;-80
2021/04/14 19:06:23;;;;;;;;;;;9.80;45.10;;;;;;4899864;29;20381;-79
2021/04/14 19:08:50;;;;;;;;;;;9.80;45.40;;;;;;4899314;29;19927;-76
2021/04/14 19:11:16;;;;;;;;;;;9.80;45.90;;;;;;4900050;29;19927;-78
2021/04/14 19:13:43;;;;;;;;;;;9.70;46.00;;;;;;4898603;29;19931;-79
2021/04/14 19:16:13;;;;;;;;;;;9.70;46.30;;;;;;4901059;29;19985;-79
2021/04/14 19:18:42;;;;;;;;;;;9.60;46.90;;;;;;4911510;29;20434;-78
2021/04/14 19:21:10;;;;;;;;;;;9.60;47.60;;;;;;4905605;29;20300;-78
2021/04/14 19:23:37;;;;;;;;;;;9.50;48.20;;;;;;4907697;29;20278;-78
2021/04/14 19:26:03;;;;;;;;;;;9.50;48.90;;;;;;4903474;29;20423;-78
2021/04/14 19:28:32;;;;;;;;;;;9.40;49.30;;;;;;4916363;29;19936;-77
2021/04/14 19:31:01;;;;;;;;;;;9.30;49.60;;;;;;4905711;29;19934;-77
2021/04/14 19:33:29;;;;;;;;;;;9.30;50.00;;;;;;4912671;29;20319;-77
2021/04/14 19:36:01;;;;;;;;;;;9.20;50.10;;;;;;4914241;29;20369;-83
2021/04/14 19:38:33;;;;;;;;;;;9.20;50.30;;;;;;4906150;29;19927;-84
2021/04/14 19:41:01;;;;;;;;;;;9.10;50.50;;;;;;4899876;29;20388;-82
2021/04/14 19:43:27;;;;;;;;;;;9.10;50.80;;;;;;4916172;29;20018;-77
2021/04/14 19:45:53;;;;;;;;;;;9.00;51.10;;;;;;4916075;29;19934;-76
2021/04/14 19:48:20;;;;;;;;;;;9.00;51.60;;;;;;4908642;29;19927;-77
2021/04/14 19:50:50;;;;;;;;;;;8.90;51.80;;;;;;4901184;29;19927;-77
2021/04/14 19:53:17;;;;;;;;;;;8.90;51.90;;;;;;4904078;29;19928;-77
2021/04/14 19:55:43;;;;;;;;;;;8.90;52.10;;;;;;4907400;29;19927;-77
2021/04/14 19:58:10;;;;;;;;;;;8.80;51.80;;;;;;4899575;29;19932;-77
2021/04/14 20:00:38;;;;;;;;;;;8.80;52.10;;;;;;4901369;29;19934;-76
2021/04/14 20:03:05;;;;;;;;;;;8.70;52.30;;;;;;4906368;29;20281;-76
2021/04/14 20:05:32;;;;;;;;;;;8.70;52.60;;;;;;4915050;29;19931;-76
2021/04/14 20:07:59;;;;;;;;;;;8.70;52.70;;;;;;4913982;29;20304;-76
2021/04/14 20:10:27;;;;;;;;;;;8.70;52.60;;;;;;4910015;29;19931;-76
2021/04/14 20:12:54;;;;;;;;;;;8.70;52.50;;;;;;4898381;29;19931;-77
2021/04/14 20:15:20;;;;;;;;;;;8.70;52.50;;;;;;4908678;29;19942;-78
2021/04/14 20:17:47;;;;;;;;;;;8.70;52.70;;;;;;4905113;29;19962;-78
2021/04/14 20:20:17;;;;;;;;;;;8.70;52.60;;;;;;4912501;29;20411;-78
2021/04/14 20:22:46;;;;;;;;;;;8.70;52.60;;;;;;4907100;29;20308;-78
2021/04/14 20:25:16;;;;;;;;;;;8.80;52.80;;;;;;4898311;29;20343;-78
2021/04/14 20:27:43;;;;;;;;;;;8.80;52.70;;;;;;4901414;29;19931;-78
2021/04/14 20:30:10;;;;;;;;;;;8.80;52.90;;;;;;4909687;29;19934;-78
2021/04/14 20:32:45;;;;;;;;;;;8.80;52.90;;;;;;4910187;29;19928;-77
2021/04/14 20:35:12;;;;;;;;;;;8.80;52.80;;;;;;4902833;29;20304;-77
2021/04/14 20:37:39;;;;;;;;;;;8.80;53.00;;;;;;4915442;29;19927;-77
2021/04/14 20:40:08;;;;;;;;;;;8.80;52.90;;;;;;4886665;29;20345;-77
2021/04/14 20:42:34;;;;;;;;;;;8.80;52.80;;;;;;4881604;29;19935;-77
2021/04/14 20:45:01;;;;;;;;;;;8.70;52.90;;;;;;4916702;29;19935;-78
2021/04/14 20:47:27;;;;;;;;;;;8.70;53.00;;;;;;4916511;29;19931;-77
2021/04/14 20:49:54;;;;;;;;;;;8.70;53.30;;;;;;4901572;29;19934;-78
2021/04/14 20:52:20;;;;;;;;;;;8.60;53.40;;;;;;4898969;29;19935;-76
2021/04/14 20:54:46;;;;;;;;;;;8.60;53.50;;;;;;4900100;29;19931;-77
2021/04/14 20:57:13;;;;;;;;;;;8.60;53.50;;;;;;4898551;29;19938;-77
2021/04/14 20:59:40;;;;;;;;;;;8.60;53.60;;;;;;4898144;29;20565;-76
2021/04/14 21:02:06;;;;;;;;;;;8.60;53.80;;;;;;4896539;29;20404;-77
2021/04/14 21:04:32;;;;;;;;;;;8.50;53.50;;;;;;4898483;29;19927;-77
2021/04/14 21:06:59;;;;;;;;;;;8.50;53.40;;;;;;4910504;29;19931;-78
2021/04/14 21:09:25;;;;;;;;;;;8.50;53.50;;;;;;4913977;29;20344;-78
2021/04/14 21:11:51;;;;;;;;;;;8.40;53.60;;;;;;4898281;29;20289;-78
2021/04/14 21:14:20;;;;;;;;;;;8.40;54.30;;;;;;4898651;29;19951;-77
2021/04/14 21:16:47;;;;;;;;;;;8.40;53.80;;;;;;4898384;29;19927;-77
2021/04/14 21:19:13;;;;;;;;;;;8.40;53.70;;;;;;4912614;29;19930;-77
2021/04/14 21:21:39;;;;;;;;;;;8.40;53.50;;;;;;4912714;29;19934;-77
2021/04/14 21:24:06;;;;;;;;;;;8.40;53.40;;;;;;4916463;29;19935;-77
2021/04/14 21:26:32;;;;;;;;;;;8.40;53.20;;;;;;4910857;29;20308;-77
2021/04/14 21:28:58;;;;;;;;;;;8.30;53.30;;;;;;4901874;29;19927;-78